sensor_id;sensor_type;location;lat;lon;timestamp;temperature;humidity
38464;DHT22;24243;51.956;5.902;2023-05-16T00:00:18;22.30;44.40
38464;DHT22;24243;51.956;5.902;2023-05-16T00:02:44;22.20;44.30
38464;DHT22;24243;51.956;5.902;2023-05-16T00:05:10;22.20;44.40
38464;DHT22;24243;51.956;5.902;2023-05-16T00:07:44;22.20;44.40
38464;DHT22;24243;51.956;5.902;2023-05-16T00:10:11;22.20;44.40
38464;DHT22;24243;51.956;5.902;2023-05-16T00:12:37;22.20;44.40
38464;DHT22;24243;51.956;5.902;2023-05-16T00:15:08;22.20;44.40
38464;DHT22;24243;51.956;5.902;2023-05-16T00:17:37;22.20;44.30
38464;DHT22;24243;51.956;5.902;2023-05-16T00:20:03;22.20;44.40
38464;DHT22;24243;51.956;5.902;2023-05-16T00:22:36;22.20;44.40
38464;DHT22;24243;51.956;5.902;2023-05-16T00:25:02;22.20;44.40
38464;DHT22;24243;51.956;5.902;2023-05-16T00:27:28;22.20;44.40
38464;DHT22;24243;51.956;5.902;2023-05-16T00:29:54;22.10;44.30
38464;DHT22;24243;51.956;5.902;2023-05-16T00:32:20;22.20;44.30
38464;DHT22;24243;51.956;5.902;2023-05-16T00:34:46;22.10;44.20
38464;DHT22;24243;51.956;5.902;2023-05-16T00:37:12;22.20;44.80
38464;DHT22;24243;51.956;5.902;2023-05-16T00:39:38;22.10;44.20
38464;DHT22;24243;51.956;5.902;2023-05-16T00:42:04;22.10;44.20
38464;DHT22;24243;51.956;5.902;2023-05-16T00:44:30;22.10;44.10
38464;DHT22;24243;51.956;5.902;2023-05-16T00:46:57;22.10;44.10
38464;DHT22;24243;51.956;5.902;2023-05-16T00:49:24;22.20;44.20
38464;DHT22;24243;51.956;5.902;2023-05-16T00:51:51;22.10;44.10
38464;DHT22;24243;51.956;5.902;2023-05-16T00:54:18;22.20;44.10
38464;DHT22;24243;51.956;5.902;2023-05-16T00:56:45;22.10;44.00
38464;DHT22;24243;51.956;5.902;2023-05-16T00:59:11;22.10;44.00
38464;DHT22;24243;51.956;5.902;2023-05-16T01:01:38;22.10;44.00
38464;DHT22;24243;51.956;5.902;2023-05-16T01:04:06;22.10;44.00
38464;DHT22;24243;51.956;5.902;2023-05-16T01:06:33;22.10;43.90
38464;DHT22;24243;51.956;5.902;2023-05-16T01:09:01;22.10;43.80
38464;DHT22;24243;51.956;5.902;2023-05-16T01:11:51;22.10;43.80
38464;DHT22;24243;51.956;5.902;2023-05-16T01:14:48;22.10;43.80
38464;DHT22;24243;51.956;5.902;2023-05-16T01:17:31;22.10;43.80
38464;DHT22;24243;51.956;5.902;2023-05-16T01:25:21;22.10;43.70
38464;DHT22;24243;51.956;5.902;2023-05-16T01:27:51;22.00;43.60
38464;DHT22;24243;51.956;5.902;2023-05-16T01:30:18;22.10;43.60
38464;DHT22;24243;51.956;5.902;2023-05-16T01:32:44;22.00;44.20
38464;DHT22;24243;51.956;5.902;2023-05-16T01:35:13;22.00;43.50
38464;DHT22;24243;51.956;5.902;2023-05-16T01:38:17;22.00;43.40
38464;DHT22;24243;51.956;5.902;2023-05-16T01:43:43;22.00;43.40
38464;DHT22;24243;51.956;5.902;2023-05-16T01:46:13;22.00;43.40
38464;DHT22;24243;51.956;5.902;2023-05-16T01:48:52;22.00;43.40
38464;DHT22;24243;51.956;5.902;2023-05-16T01:51:21;22.00;43.40
38464;DHT22;24243;51.956;5.902;2023-05-16T01:53:49;21.90;43.30
38464;DHT22;24243;51.956;5.902;2023-05-16T01:56:16;22.00;43.30
38464;DHT22;24243;51.956;5.902;2023-05-16T01:58:43;21.90;43.40
38464;DHT22;24243;51.956;5.902;2023-05-16T02:01:11;21.90;43.40
38464;DHT22;24243;51.956;5.902;2023-05-16T02:03:37;21.90;43.40
38464;DHT22;24243;51.956;5.902;2023-05-16T02:06:03;21.90;43.40
38464;DHT22;24243;51.956;5.902;2023-05-16T02:08:30;21.90;43.40
38464;DHT22;24243;51.956;5.902;2023-05-16T02:10:56;21.90;43.20
38464;DHT22;24243;51.956;5.902;2023-05-16T02:13:21;21.90;43.20
38464;DHT22;24243;51.956;5.902;2023-05-16T02:15:47;21.90;43.20
38464;DHT22;24243;51.956;5.902;2023-05-16T02:18:13;21.90;43.20
38464;DHT22;24243;51.956;5.902;2023-05-16T02:20:39;21.90;43.20
38464;DHT22;24243;51.956;5.902;2023-05-16T02:23:05;21.90;43.20
38464;DHT22;24243;51.956;5.902;2023-05-16T02:25:30;21.90;43.10
38464;DHT22;24243;51.956;5.902;2023-05-16T02:27:56;21.90;43.10
38464;DHT22;24243;51.956;5.902;2023-05-16T02:30:22;21.80;43.10
38464;DHT22;24243;51.956;5.902;2023-05-16T02:32:48;21.90;43.20
38464;DHT22;24243;51.956;5.902;2023-05-16T02:35:14;21.90;43.20
38464;DHT22;24243;51.956;5.902;2023-05-16T02:37:40;21.90;43.20
38464;DHT22;24243;51.956;5.902;2023-05-16T02:40:07;21.80;43.00
38464;DHT22;24243;51.956;5.902;2023-05-16T02:42:33;21.80;43.00
38464;DHT22;24243;51.956;5.902;2023-05-16T02:44:59;21.80;43.00
38464;DHT22;24243;51.956;5.902;2023-05-16T02:47:25;21.80;43.00
38464;DHT22;24243;51.956;5.902;2023-05-16T02:49:51;21.80;43.10
38464;DHT22;24243;51.956;5.902;2023-05-16T02:52:17;21.80;43.70
38464;DHT22;24243;51.956;5.902;2023-05-16T02:54:43;21.80;43.10
38464;DHT22;24243;51.956;5.902;2023-05-16T02:57:09;21.80;43.00
38464;DHT22;24243;51.956;5.902;2023-05-16T02:59:35;21.80;43.10
38464;DHT22;24243;51.956;5.902;2023-05-16T03:02:01;21.80;43.10
38464;DHT22;24243;51.956;5.902;2023-05-16T03:04:27;21.80;43.10
38464;DHT22;24243;51.956;5.902;2023-05-16T03:06:53;21.80;43.10
38464;DHT22;24243;51.956;5.902;2023-05-16T03:09:18;21.70;43.10
38464;DHT22;24243;51.956;5.902;2023-05-16T03:11:45;21.80;43.20
38464;DHT22;24243;51.956;5.902;2023-05-16T03:14:11;21.80;43.20
38464;DHT22;24243;51.956;5.902;2023-05-16T03:16:37;21.70;43.10
38464;DHT22;24243;51.956;5.902;2023-05-16T03:19:03;21.70;43.20
38464;DHT22;24243;51.956;5.902;2023-05-16T03:21:30;21.70;43.20
38464;DHT22;24243;51.956;5.902;2023-05-16T03:23:56;21.70;43.20
38464;DHT22;24243;51.956;5.902;2023-05-16T03:26:23;21.70;43.20
38464;DHT22;24243;51.956;5.902;2023-05-16T03:28:49;21.70;43.20
38464;DHT22;24243;51.956;5.902;2023-05-16T03:31:16;21.70;43.20
38464;DHT22;24243;51.956;5.902;2023-05-16T03:33:42;21.70;43.20
38464;DHT22;24243;51.956;5.902;2023-05-16T03:36:08;21.70;43.20
38464;DHT22;24243;51.956;5.902;2023-05-16T03:38:34;21.70;43.20
38464;DHT22;24243;51.956;5.902;2023-05-16T03:41:00;21.70;43.20
38464;DHT22;24243;51.956;5.902;2023-05-16T03:43:26;21.70;43.20
38464;DHT22;24243;51.956;5.902;2023-05-16T03:45:52;21.70;43.20
38464;DHT22;24243;51.956;5.902;2023-05-16T03:48:18;21.70;43.20
38464;DHT22;24243;51.956;5.902;2023-05-16T03:50:43;21.60;43.10
38464;DHT22;24243;51.956;5.902;2023-05-16T03:53:10;21.60;43.20
38464;DHT22;24243;51.956;5.902;2023-05-16T03:55:36;21.70;43.20
38464;DHT22;24243;51.956;5.902;2023-05-16T03:58:02;21.60;43.20
38464;DHT22;24243;51.956;5.902;2023-05-16T04:00:28;21.70;43.30
38464;DHT22;24243;51.956;5.902;2023-05-16T04:02:54;21.60;43.20
38464;DHT22;24243;51.956;5.902;2023-05-16T04:05:19;21.70;43.30
38464;DHT22;24243;51.956;5.902;2023-05-16T04:07:45;21.70;43.30
38464;DHT22;24243;51.956;5.902;2023-05-16T04:10:12;21.60;43.30
38464;DHT22;24243;51.956;5.902;2023-05-16T04:12:38;21.60;43.20
38464;DHT22;24243;51.956;5.902;2023-05-16T04:15:05;21.60;43.30
38464;DHT22;24243;51.956;5.902;2023-05-16T04:17:31;21.60;43.30
38464;DHT22;24243;51.956;5.902;2023-05-16T04:19:57;21.60;43.30
38464;DHT22;24243;51.956;5.902;2023-05-16T04:22:25;21.60;43.30
38464;DHT22;24243;51.956;5.902;2023-05-16T04:24:51;21.60;43.30
38464;DHT22;24243;51.956;5.902;2023-05-16T04:27:16;21.60;43.40
38464;DHT22;24243;51.956;5.902;2023-05-16T04:29:43;21.60;43.40
38464;DHT22;24243;51.956;5.902;2023-05-16T04:32:09;21.60;43.40
38464;DHT22;24243;51.956;5.902;2023-05-16T04:34:35;21.60;43.40
38464;DHT22;24243;51.956;5.902;2023-05-16T04:37:05;21.60;43.40
38464;DHT22;24243;51.956;5.902;2023-05-16T04:39:33;21.60;43.40
38464;DHT22;24243;51.956;5.902;2023-05-16T04:41:59;21.60;43.40
38464;DHT22;24243;51.956;5.902;2023-05-16T04:44:25;21.70;43.50
38464;DHT22;24243;51.956;5.902;2023-05-16T04:46:51;21.60;43.40
38464;DHT22;24243;51.956;5.902;2023-05-16T04:49:21;21.70;43.40
38464;DHT22;24243;51.956;5.902;2023-05-16T04:51:49;21.60;43.30
38464;DHT22;24243;51.956;5.902;2023-05-16T04:54:15;21.60;43.30
38464;DHT22;24243;51.956;5.902;2023-05-16T04:56:40;21.60;43.30
38464;DHT22;24243;51.956;5.902;2023-05-16T04:59:06;21.60;43.30
38464;DHT22;24243;51.956;5.902;2023-05-16T05:01:32;21.60;43.20
38464;DHT22;24243;51.956;5.902;2023-05-16T05:03:58;21.70;43.30
38464;DHT22;24243;51.956;5.902;2023-05-16T05:06:23;21.60;43.30
38464;DHT22;24243;51.956;5.902;2023-05-16T05:08:49;21.60;43.30
38464;DHT22;24243;51.956;5.902;2023-05-16T05:11:15;21.60;43.40
38464;DHT22;24243;51.956;5.902;2023-05-16T05:13:41;21.60;43.40
38464;DHT22;24243;51.956;5.902;2023-05-16T05:16:07;21.60;43.50
38464;DHT22;24243;51.956;5.902;2023-05-16T05:18:33;21.60;43.50
38464;DHT22;24243;51.956;5.902;2023-05-16T05:20:58;21.60;43.50
38464;DHT22;24243;51.956;5.902;2023-05-16T05:23:24;21.60;43.60
38464;DHT22;24243;51.956;5.902;2023-05-16T05:25:50;21.60;43.60
38464;DHT22;24243;51.956;5.902;2023-05-16T05:28:16;21.60;43.60
38464;DHT22;24243;51.956;5.902;2023-05-16T05:30:42;21.70;44.30
38464;DHT22;24243;51.956;5.902;2023-05-16T05:33:10;21.70;44.30
38464;DHT22;24243;51.956;5.902;2023-05-16T05:35:36;21.60;43.60
38464;DHT22;24243;51.956;5.902;2023-05-16T05:38:02;21.70;43.60
38464;DHT22;24243;51.956;5.902;2023-05-16T05:40:28;21.70;43.60
38464;DHT22;24243;51.956;5.902;2023-05-16T05:42:54;21.70;43.70
38464;DHT22;24243;51.956;5.902;2023-05-16T05:45:20;21.80;43.90
38464;DHT22;24243;51.956;5.902;2023-05-16T05:47:45;21.70;43.90
38464;DHT22;24243;51.956;5.902;2023-05-16T05:50:12;21.70;43.80
38464;DHT22;24243;51.956;5.902;2023-05-16T05:52:39;21.70;43.80
38464;DHT22;24243;51.956;5.902;2023-05-16T05:55:05;21.70;43.70
38464;DHT22;24243;51.956;5.902;2023-05-16T05:57:31;21.80;43.70
38464;DHT22;24243;51.956;5.902;2023-05-16T05:59:57;21.80;43.60
38464;DHT22;24243;51.956;5.902;2023-05-16T06:02:22;21.80;43.60
38464;DHT22;24243;51.956;5.902;2023-05-16T06:04:48;21.70;43.50
38464;DHT22;24243;51.956;5.902;2023-05-16T06:07:14;21.70;43.50
38464;DHT22;24243;51.956;5.902;2023-05-16T06:09:40;21.80;43.50
38464;DHT22;24243;51.956;5.902;2023-05-16T06:12:07;21.80;43.50
38464;DHT22;24243;51.956;5.902;2023-05-16T06:14:33;21.70;43.60
38464;DHT22;24243;51.956;5.902;2023-05-16T06:16:59;21.80;43.60
38464;DHT22;24243;51.956;5.902;2023-05-16T06:19:25;21.80;43.70
38464;DHT22;24243;51.956;5.902;2023-05-16T06:21:50;21.80;43.60
38464;DHT22;24243;51.956;5.902;2023-05-16T06:24:16;21.80;43.50
38464;DHT22;24243;51.956;5.902;2023-05-16T06:26:42;21.80;43.60
38464;DHT22;24243;51.956;5.902;2023-05-16T06:29:10;21.90;43.50
38464;DHT22;24243;51.956;5.902;2023-05-16T06:31:36;21.90;43.40
38464;DHT22;24243;51.956;5.902;2023-05-16T06:34:02;22.00;43.90
38464;DHT22;24243;51.956;5.902;2023-05-16T06:36:28;22.00;43.20
38464;DHT22;24243;51.956;5.902;2023-05-16T06:38:54;22.00;43.10
38464;DHT22;24243;51.956;5.902;2023-05-16T06:41:19;22.00;43.00
38464;DHT22;24243;51.956;5.902;2023-05-16T06:43:46;22.10;43.00
38464;DHT22;24243;51.956;5.902;2023-05-16T06:46:11;22.10;42.90
38464;DHT22;24243;51.956;5.902;2023-05-16T06:48:37;22.10;42.90
38464;DHT22;24243;51.956;5.902;2023-05-16T06:51:03;22.10;42.90
38464;DHT22;24243;51.956;5.902;2023-05-16T06:53:28;22.00;42.80
38464;DHT22;24243;51.956;5.902;2023-05-16T06:55:54;22.10;42.80
38464;DHT22;24243;51.956;5.902;2023-05-16T06:58:20;22.10;42.70
38464;DHT22;24243;51.956;5.902;2023-05-16T07:00:48;22.20;42.70
38464;DHT22;24243;51.956;5.902;2023-05-16T07:03:14;22.20;42.50
38464;DHT22;24243;51.956;5.902;2023-05-16T07:05:40;22.30;42.50
38464;DHT22;24243;51.956;5.902;2023-05-16T07:08:08;22.30;42.40
38464;DHT22;24243;51.956;5.902;2023-05-16T07:10:37;22.40;42.40
38464;DHT22;24243;51.956;5.902;2023-05-16T07:13:02;22.40;42.30
38464;DHT22;24243;51.956;5.902;2023-05-16T07:15:29;22.50;42.20
38464;DHT22;24243;51.956;5.902;2023-05-16T07:17:55;22.50;41.60
38464;DHT22;24243;51.956;5.902;2023-05-16T07:20:21;22.50;41.30
38464;DHT22;24243;51.956;5.902;2023-05-16T07:22:47;22.50;41.00
38464;DHT22;24243;51.956;5.902;2023-05-16T07:25:13;22.40;40.70
38464;DHT22;24243;51.956;5.902;2023-05-16T07:27:41;22.30;40.60
38464;DHT22;24243;51.956;5.902;2023-05-16T07:30:10;22.30;40.40
38464;DHT22;24243;51.956;5.902;2023-05-16T07:32:36;22.10;40.10
38464;DHT22;24243;51.956;5.902;2023-05-16T07:35:02;22.10;39.90
38464;DHT22;24243;51.956;5.902;2023-05-16T07:37:29;22.00;40.30
38464;DHT22;24243;51.956;5.902;2023-05-16T07:39:55;21.80;39.30
38464;DHT22;24243;51.956;5.902;2023-05-16T07:42:21;21.70;39.10
38464;DHT22;24243;51.956;5.902;2023-05-16T07:44:46;21.70;39.00
38464;DHT22;24243;51.956;5.902;2023-05-16T07:47:12;21.60;39.00
38464;DHT22;24243;51.956;5.902;2023-05-16T07:49:38;21.60;39.00
38464;DHT22;24243;51.956;5.902;2023-05-16T07:52:04;21.60;39.00
38464;DHT22;24243;51.956;5.902;2023-05-16T07:54:31;21.50;38.80
38464;DHT22;24243;51.956;5.902;2023-05-16T07:56:57;21.50;38.80
38464;DHT22;24243;51.956;5.902;2023-05-16T07:59:23;21.50;38.70
38464;DHT22;24243;51.956;5.902;2023-05-16T08:01:49;21.50;38.60
38464;DHT22;24243;51.956;5.902;2023-05-16T08:04:15;21.40;38.60
38464;DHT22;24243;51.956;5.902;2023-05-16T08:06:41;21.50;38.80
38464;DHT22;24243;51.956;5.902;2023-05-16T08:09:06;21.50;39.20
38464;DHT22;24243;51.956;5.902;2023-05-16T08:11:34;21.50;39.40
38464;DHT22;24243;51.956;5.902;2023-05-16T08:14:03;21.60;39.60
38464;DHT22;24243;51.956;5.902;2023-05-16T08:16:44;21.60;39.80
38464;DHT22;24243;51.956;5.902;2023-05-16T08:19:10;21.70;39.90
38464;DHT22;24243;51.956;5.902;2023-05-16T08:21:35;21.80;40.00
38464;DHT22;24243;51.956;5.902;2023-05-16T08:24:02;21.80;40.10
38464;DHT22;24243;51.956;5.902;2023-05-16T08:26:30;21.90;40.10
38464;DHT22;24243;51.956;5.902;2023-05-16T08:28:56;21.90;39.90
38464;DHT22;24243;51.956;5.902;2023-05-16T08:31:22;21.90;39.70
38464;DHT22;24243;51.956;5.902;2023-05-16T08:33:48;22.00;39.70
38464;DHT22;24243;51.956;5.902;2023-05-16T08:36:14;22.00;39.70
38464;DHT22;24243;51.956;5.902;2023-05-16T08:38:40;22.00;39.70
38464;DHT22;24243;51.956;5.902;2023-05-16T08:41:06;22.00;39.70
38464;DHT22;24243;51.956;5.902;2023-05-16T08:43:32;22.00;39.80
38464;DHT22;24243;51.956;5.902;2023-05-16T08:45:59;22.00;39.80
38464;DHT22;24243;51.956;5.902;2023-05-16T08:48:27;22.00;39.90
38464;DHT22;24243;51.956;5.902;2023-05-16T08:50:53;22.10;40.00
38464;DHT22;24243;51.956;5.902;2023-05-16T08:53:21;22.10;40.00
38464;DHT22;24243;51.956;5.902;2023-05-16T08:55:52;22.20;40.00
38464;DHT22;24243;51.956;5.902;2023-05-16T08:58:18;22.20;40.10
38464;DHT22;24243;51.956;5.902;2023-05-16T09:00:45;22.30;39.80
38464;DHT22;24243;51.956;5.902;2023-05-16T09:03:11;22.30;39.20
38464;DHT22;24243;51.956;5.902;2023-05-16T09:05:37;22.30;38.60
38464;DHT22;24243;51.956;5.902;2023-05-16T09:08:03;22.40;38.50
38464;DHT22;24243;51.956;5.902;2023-05-16T09:10:28;22.40;38.30
38464;DHT22;24243;51.956;5.902;2023-05-16T09:12:54;22.30;38.20
38464;DHT22;24243;51.956;5.902;2023-05-16T09:15:20;22.30;38.10
38464;DHT22;24243;51.956;5.902;2023-05-16T09:17:46;22.30;38.00
38464;DHT22;24243;51.956;5.902;2023-05-16T09:20:14;22.30;37.90
38464;DHT22;24243;51.956;5.902;2023-05-16T09:22:49;22.30;37.80
38464;DHT22;24243;51.956;5.902;2023-05-16T09:25:17;22.30;37.70
38464;DHT22;24243;51.956;5.902;2023-05-16T09:27:42;22.30;37.70
38464;DHT22;24243;51.956;5.902;2023-05-16T09:30:17;22.30;38.30
38464;DHT22;24243;51.956;5.902;2023-05-16T09:32:45;22.20;37.50
38464;DHT22;24243;51.956;5.902;2023-05-16T09:35:15;22.20;37.50
38464;DHT22;24243;51.956;5.902;2023-05-16T09:37:45;22.10;37.40
38464;DHT22;24243;51.956;5.902;2023-05-16T09:40:12;22.10;37.50
38464;DHT22;24243;51.956;5.902;2023-05-16T09:42:38;22.00;37.50
38464;DHT22;24243;51.956;5.902;2023-05-16T09:45:04;22.00;37.60
38464;DHT22;24243;51.956;5.902;2023-05-16T09:47:30;21.90;37.60
38464;DHT22;24243;51.956;5.902;2023-05-16T09:49:56;21.90;37.60
38464;DHT22;24243;51.956;5.902;2023-05-16T09:52:25;21.80;38.00
38464;DHT22;24243;51.956;5.902;2023-05-16T09:54:51;21.80;38.30
38464;DHT22;24243;51.956;5.902;2023-05-16T09:57:20;21.80;38.50
38464;DHT22;24243;51.956;5.902;2023-05-16T09:59:46;21.90;38.60
38464;DHT22;24243;51.956;5.902;2023-05-16T10:02:13;21.90;38.60
38464;DHT22;24243;51.956;5.902;2023-05-16T10:04:38;21.90;38.40
38464;DHT22;24243;51.956;5.902;2023-05-16T10:07:05;21.90;38.20
38464;DHT22;24243;51.956;5.902;2023-05-16T10:09:34;21.90;38.00
38464;DHT22;24243;51.956;5.902;2023-05-16T10:12:02;21.90;37.90
38464;DHT22;24243;51.956;5.902;2023-05-16T10:14:33;21.90;38.00
38464;DHT22;24243;51.956;5.902;2023-05-16T10:16:59;21.90;38.10
38464;DHT22;24243;51.956;5.902;2023-05-16T10:19:25;22.00;38.30
38464;DHT22;24243;51.956;5.902;2023-05-16T10:21:55;22.00;38.30
38464;DHT22;24243;51.956;5.902;2023-05-16T10:25:14;22.10;38.30
38464;DHT22;24243;51.956;5.902;2023-05-16T10:27:14;22.10;38.10
38464;DHT22;24243;51.956;5.902;2023-05-16T10:29:41;22.10;37.90
38464;DHT22;24243;51.956;5.902;2023-05-16T10:32:08;22.10;37.70
38464;DHT22;24243;51.956;5.902;2023-05-16T10:34:34;22.10;37.70
38464;DHT22;24243;51.956;5.902;2023-05-16T10:37:01;22.10;37.70
38464;DHT22;24243;51.956;5.902;2023-05-16T10:39:28;22.10;37.80
38464;DHT22;24243;51.956;5.902;2023-05-16T10:41:56;22.10;38.40
38464;DHT22;24243;51.956;5.902;2023-05-16T10:44:21;22.10;37.90
38464;DHT22;24243;51.956;5.902;2023-05-16T10:46:47;22.10;38.30
38464;DHT22;24243;51.956;5.902;2023-05-16T10:49:21;22.20;37.60
38464;DHT22;24243;51.956;5.902;2023-05-16T10:54:39;22.20;36.90
38464;DHT22;24243;51.956;5.902;2023-05-16T10:57:18;22.10;36.90
38464;DHT22;24243;51.956;5.902;2023-05-16T10:59:50;22.10;37.10
38464;DHT22;24243;51.956;5.902;2023-05-16T11:04:55;22.20;36.80
38464;DHT22;24243;51.956;5.902;2023-05-16T11:07:22;22.20;36.80
38464;DHT22;24243;51.956;5.902;2023-05-16T11:10:09;22.10;36.70
38464;DHT22;24243;51.956;5.902;2023-05-16T11:12:49;22.10;36.50
38464;DHT22;24243;51.956;5.902;2023-05-16T11:15:27;22.10;36.70
38464;DHT22;24243;51.956;5.902;2023-05-16T11:18:14;22.10;36.70
38464;DHT22;24243;51.956;5.902;2023-05-16T11:20:41;22.10;36.60
38464;DHT22;24243;51.956;5.902;2023-05-16T11:23:20;22.10;36.70
38464;DHT22;24243;51.956;5.902;2023-05-16T11:26:04;22.00;36.50
38464;DHT22;24243;51.956;5.902;2023-05-16T11:28:33;22.10;36.80
38464;DHT22;24243;51.956;5.902;2023-05-16T11:31:02;22.00;36.50
38464;DHT22;24243;51.956;5.902;2023-05-16T11:33:30;22.10;36.30
38464;DHT22;24243;51.956;5.902;2023-05-16T11:36:04;22.10;36.40
38464;DHT22;24243;51.956;5.902;2023-05-16T11:38:31;22.10;36.20
38464;DHT22;24243;51.956;5.902;2023-05-16T11:41:06;22.10;36.30
38464;DHT22;24243;51.956;5.902;2023-05-16T11:43:44;22.10;36.30
38464;DHT22;24243;51.956;5.902;2023-05-16T11:46:13;22.10;36.30
38464;DHT22;24243;51.956;5.902;2023-05-16T11:48:40;22.10;36.30
38464;DHT22;24243;51.956;5.902;2023-05-16T11:51:07;22.10;36.20
38464;DHT22;24243;51.956;5.902;2023-05-16T11:53:33;22.10;36.00
38464;DHT22;24243;51.956;5.902;2023-05-16T11:55:59;22.10;35.90
38464;DHT22;24243;51.956;5.902;2023-05-16T11:58:27;22.10;35.70
38464;DHT22;24243;51.956;5.902;2023-05-16T12:00:53;22.10;35.60
38464;DHT22;24243;51.956;5.902;2023-05-16T12:03:19;22.10;35.50
38464;DHT22;24243;51.956;5.902;2023-05-16T12:05:53;22.00;35.40
38464;DHT22;24243;51.956;5.902;2023-05-16T12:08:22;22.10;35.40
38464;DHT22;24243;51.956;5.902;2023-05-16T12:10:50;22.10;35.50
38464;DHT22;24243;51.956;5.902;2023-05-16T12:13:21;22.10;35.50
38464;DHT22;24243;51.956;5.902;2023-05-16T12:15:48;22.00;35.50
38464;DHT22;24243;51.956;5.902;2023-05-16T12:18:14;22.10;35.50
38464;DHT22;24243;51.956;5.902;2023-05-16T12:20:41;22.00;35.30
38464;DHT22;24243;51.956;5.902;2023-05-16T12:23:12;22.10;35.30
38464;DHT22;24243;51.956;5.902;2023-05-16T12:25:38;22.00;35.10
38464;DHT22;24243;51.956;5.902;2023-05-16T12:28:11;22.10;35.10
38464;DHT22;24243;51.956;5.902;2023-05-16T12:30:40;22.00;35.10
38464;DHT22;24243;51.956;5.902;2023-05-16T12:33:11;22.10;35.30
38464;DHT22;24243;51.956;5.902;2023-05-16T12:35:46;22.10;35.20
38464;DHT22;24243;51.956;5.902;2023-05-16T12:38:13;22.10;35.30
38464;DHT22;24243;51.956;5.902;2023-05-16T12:40:43;22.10;35.50
38464;DHT22;24243;51.956;5.902;2023-05-16T12:43:16;22.10;35.40
38464;DHT22;24243;51.956;5.902;2023-05-16T12:45:49;22.10;35.40
38464;DHT22;24243;51.956;5.902;2023-05-16T12:48:16;22.10;35.40
38464;DHT22;24243;51.956;5.902;2023-05-16T12:50:41;22.10;35.30
38464;DHT22;24243;51.956;5.902;2023-05-16T12:53:12;22.10;35.30
38464;DHT22;24243;51.956;5.902;2023-05-16T12:55:39;22.10;35.30
38464;DHT22;24243;51.956;5.902;2023-05-16T12:58:05;22.10;35.40
38464;DHT22;24243;51.956;5.902;2023-05-16T13:00:30;22.10;35.40
38464;DHT22;24243;51.956;5.902;2023-05-16T13:02:56;22.00;35.40
38464;DHT22;24243;51.956;5.902;2023-05-16T13:05:22;22.00;35.30
38464;DHT22;24243;51.956;5.902;2023-05-16T13:07:48;22.00;35.30
38464;DHT22;24243;51.956;5.902;2023-05-16T13:10:16;22.00;35.30
38464;DHT22;24243;51.956;5.902;2023-05-16T13:12:42;22.00;35.40
38464;DHT22;24243;51.956;5.902;2023-05-16T13:15:10;22.00;35.60
38464;DHT22;24243;51.956;5.902;2023-05-16T13:17:37;22.00;35.60
38464;DHT22;24243;51.956;5.902;2023-05-16T13:20:05;21.90;35.70
38464;DHT22;24243;51.956;5.902;2023-05-16T13:22:40;21.90;35.80
38464;DHT22;24243;51.956;5.902;2023-05-16T13:25:07;21.90;36.00
38464;DHT22;24243;51.956;5.902;2023-05-16T13:27:33;21.90;36.10
38464;DHT22;24243;51.956;5.902;2023-05-16T13:29:59;21.90;36.10
38464;DHT22;24243;51.956;5.902;2023-05-16T13:32:25;21.90;36.90
38464;DHT22;24243;51.956;5.902;2023-05-16T13:34:51;21.90;36.30
38464;DHT22;24243;51.956;5.902;2023-05-16T13:37:17;21.90;36.30
38464;DHT22;24243;51.956;5.902;2023-05-16T13:39:43;22.00;37.10
38464;DHT22;24243;51.956;5.902;2023-05-16T13:42:09;21.90;36.50
38464;DHT22;24243;51.956;5.902;2023-05-16T13:44:35;22.00;36.50
38464;DHT22;24243;51.956;5.902;2023-05-16T13:47:01;21.90;36.50
38464;DHT22;24243;51.956;5.902;2023-05-16T13:49:28;21.90;36.50
38464;DHT22;24243;51.956;5.902;2023-05-16T13:51:53;21.90;36.60
38464;DHT22;24243;51.956;5.902;2023-05-16T13:54:20;21.90;36.60
38464;DHT22;24243;51.956;5.902;2023-05-16T13:56:47;21.90;36.70
38464;DHT22;24243;51.956;5.902;2023-05-16T13:59:13;21.80;36.70
38464;DHT22;24243;51.956;5.902;2023-05-16T14:01:39;21.80;36.70
38464;DHT22;24243;51.956;5.902;2023-05-16T14:04:06;21.80;36.80
38464;DHT22;24243;51.956;5.902;2023-05-16T14:06:31;21.80;36.80
38464;DHT22;24243;51.956;5.902;2023-05-16T14:08:57;21.80;36.90
38464;DHT22;24243;51.956;5.902;2023-05-16T14:11:23;21.70;36.80
38464;DHT22;24243;51.956;5.902;2023-05-16T14:13:55;21.70;36.90
38464;DHT22;24243;51.956;5.902;2023-05-16T14:16:21;21.70;37.00
38464;DHT22;24243;51.956;5.902;2023-05-16T14:18:47;21.70;37.00
38464;DHT22;24243;51.956;5.902;2023-05-16T14:21:13;21.60;37.00
38464;DHT22;24243;51.956;5.902;2023-05-16T14:23:39;21.60;37.00
38464;DHT22;24243;51.956;5.902;2023-05-16T14:26:05;21.60;37.10
38464;DHT22;24243;51.956;5.902;2023-05-16T14:28:32;21.50;37.10
38464;DHT22;24243;51.956;5.902;2023-05-16T14:30:58;21.60;37.20
38464;DHT22;24243;51.956;5.902;2023-05-16T14:33:24;21.50;37.20
38464;DHT22;24243;51.956;5.902;2023-05-16T14:35:50;21.60;37.30
38464;DHT22;24243;51.956;5.902;2023-05-16T14:38:16;21.50;37.40
38464;DHT22;24243;51.956;5.902;2023-05-16T14:40:42;21.50;37.50
38464;DHT22;24243;51.956;5.902;2023-05-16T14:43:08;21.40;37.50
38464;DHT22;24243;51.956;5.902;2023-05-16T14:45:36;21.40;37.70
38464;DHT22;24243;51.956;5.902;2023-05-16T14:48:02;21.40;37.90
38464;DHT22;24243;51.956;5.902;2023-05-16T14:50:28;21.40;37.90
38464;DHT22;24243;51.956;5.902;2023-05-16T14:52:54;21.40;38.00
38464;DHT22;24243;51.956;5.902;2023-05-16T14:55:20;21.50;38.20
38464;DHT22;24243;51.956;5.902;2023-05-16T14:57:46;21.50;38.30
38464;DHT22;24243;51.956;5.902;2023-05-16T15:00:14;21.60;38.30
38464;DHT22;24243;51.956;5.902;2023-05-16T15:02:41;21.50;38.40
38464;DHT22;24243;51.956;5.902;2023-05-16T15:05:08;21.60;38.50
38464;DHT22;24243;51.956;5.902;2023-05-16T15:07:34;21.60;38.60
38464;DHT22;24243;51.956;5.902;2023-05-16T15:09:59;21.60;38.60
38464;DHT22;24243;51.956;5.902;2023-05-16T15:12:26;21.70;38.70
38464;DHT22;24243;51.956;5.902;2023-05-16T15:14:52;21.70;38.70
38464;DHT22;24243;51.956;5.902;2023-05-16T15:17:18;21.70;38.70
38464;DHT22;24243;51.956;5.902;2023-05-16T15:19:43;21.70;38.80
38464;DHT22;24243;51.956;5.902;2023-05-16T15:22:09;21.70;38.90
38464;DHT22;24243;51.956;5.902;2023-05-16T15:24:35;21.70;38.90
38464;DHT22;24243;51.956;5.902;2023-05-16T15:27:01;21.70;39.00
38464;DHT22;24243;51.956;5.902;2023-05-16T15:29:29;21.70;39.10
38464;DHT22;24243;51.956;5.902;2023-05-16T15:31:56;21.70;39.10
38464;DHT22;24243;51.956;5.902;2023-05-16T15:34:22;21.70;39.10
38464;DHT22;24243;51.956;5.902;2023-05-16T15:36:48;21.70;39.20
38464;DHT22;24243;51.956;5.902;2023-05-16T15:39:13;21.70;39.20
38464;DHT22;24243;51.956;5.902;2023-05-16T15:41:39;21.70;39.30
38464;DHT22;24243;51.956;5.902;2023-05-16T15:44:05;21.70;39.30